createdAt,value
2019-02-19T00:01:38.015Z,9.50
2019-02-19T00:04:09.436Z,9.57
2019-02-19T00:06:41.947Z,9.30
2019-02-19T00:09:13.392Z,13.77
2019-02-19T00:11:44.843Z,9.40
2019-02-19T00:14:16.475Z,10.40
2019-02-19T00:16:47.878Z,10.70
2019-02-19T00:19:19.308Z,10.10
2019-02-19T00:21:50.788Z,14.97
2019-02-19T00:24:22.134Z,12.33
2019-02-19T00:26:53.531Z,12.00
2019-02-19T00:29:24.881Z,12.03
2019-02-19T00:31:56.321Z,9.67
2019-02-19T00:34:27.733Z,13.47
2019-02-19T00:36:59.193Z,11.03
2019-02-19T00:39:30.707Z,9.70
2019-02-19T00:42:02.129Z,11.93
2019-02-19T00:44:33.540Z,10.50
2019-02-19T00:47:05.113Z,13.17
2019-02-19T00:49:40.399Z,14.50
2019-02-19T00:52:11.545Z,9.00
2019-02-19T00:54:42.969Z,15.13
2019-02-19T00:57:14.419Z,11.47
2019-02-19T00:59:45.823Z,11.47
2019-02-19T01:02:17.283Z,21.60
2019-02-19T01:04:48.709Z,6.90
2019-02-19T01:07:20.221Z,10.90
2019-02-19T01:09:51.641Z,6.00
2019-02-19T01:12:23.551Z,9.87
2019-02-19T01:14:54.980Z,7.13
2019-02-19T01:17:26.492Z,8.47
2019-02-19T01:19:57.913Z,9.33
2019-02-19T01:22:29.402Z,8.40
2019-02-19T01:25:00.842Z,7.90
2019-02-19T01:27:34.032Z,8.10
2019-02-19T01:30:06.901Z,10.07
2019-02-19T01:32:38.364Z,7.30
2019-02-19T01:35:10.420Z,7.80
2019-02-19T01:37:41.861Z,6.37
2019-02-19T01:40:13.291Z,10.73
2019-02-19T01:42:44.731Z,12.90
2019-02-19T01:45:18.698Z,7.60
2019-02-19T01:47:50.130Z,7.27
2019-02-19T01:50:21.579Z,8.13
2019-02-19T01:52:53.008Z,7.27
2019-02-19T01:55:27.207Z,12.73
2019-02-19T01:57:58.938Z,7.83
2019-02-19T02:00:30.357Z,8.43
2019-02-19T02:03:01.715Z,10.10
2019-02-19T02:05:33.077Z,9.50
2019-02-19T02:08:04.532Z,8.00
2019-02-19T02:10:35.880Z,11.43
2019-02-19T02:13:07.250Z,10.80
2019-02-19T02:15:42.666Z,21.53
2019-02-19T02:18:11.808Z,14.23
2019-02-19T02:20:43.227Z,11.63
2019-02-19T02:23:14.683Z,11.93
2019-02-19T02:25:46.092Z,10.27
2019-02-19T02:28:17.566Z,11.53
2019-02-19T02:30:48.987Z,11.80
2019-02-19T02:33:20.392Z,11.60
2019-02-19T02:35:51.815Z,13.47
2019-02-19T02:38:23.303Z,14.30
2019-02-19T02:40:55.174Z,13.60
2019-02-19T02:43:26.786Z,11.47
2019-02-19T02:45:58.214Z,15.50
2019-02-19T02:48:29.664Z,16.00
2019-02-19T02:51:01.092Z,13.20
2019-02-19T02:53:32.559Z,11.80
2019-02-19T02:56:03.928Z,13.90
2019-02-19T02:58:35.946Z,14.30
2019-02-19T03:01:10.450Z,10.77
2019-02-19T03:03:53.320Z,13.37
2019-02-19T03:06:39.884Z,12.20
2019-02-19T03:09:14.556Z,10.90
2019-02-19T03:11:47.191Z,13.57
2019-02-19T03:14:21.360Z,19.83
2019-02-19T03:16:57.842Z,18.37
2019-02-19T03:19:29.326Z,14.93
2019-02-19T03:22:00.754Z,11.53
2019-02-19T03:24:32.246Z,18.53
2019-02-19T03:27:03.669Z,11.03
2019-02-19T03:29:35.135Z,13.63
2019-02-19T03:32:06.558Z,10.90
2019-02-19T03:34:38.042Z,12.47
2019-02-19T03:37:09.361Z,7.77
2019-02-19T03:39:40.835Z,10.53
2019-02-19T03:42:12.485Z,11.10
2019-02-19T03:44:43.917Z,19.17
2019-02-19T03:47:15.490Z,11.87
2019-02-19T03:49:48.220Z,8.10
2019-02-19T03:52:21.290Z,8.60
2019-02-19T03:54:52.824Z,10.23
2019-02-19T03:57:24.179Z,10.50
2019-02-19T03:59:55.633Z,10.03
2019-02-19T04:02:27.294Z,9.50
2019-02-19T04:04:58.720Z,9.07
2019-02-19T04:07:30.155Z,12.47
2019-02-19T04:10:01.626Z,9.07
2019-02-19T04:12:34.114Z,9.80
2019-02-19T04:15:05.691Z,7.30
2019-02-19T04:17:37.296Z,11.23
2019-02-19T04:20:09.479Z,11.67
2019-02-19T04:22:41.118Z,9.40
2019-02-19T04:25:12.602Z,7.20
2019-02-19T04:27:43.971Z,7.77
2019-02-19T04:30:15.395Z,7.67
2019-02-19T04:32:46.824Z,7.77
2019-02-19T04:35:18.904Z,11.67
2019-02-19T04:37:50.295Z,7.00
2019-02-19T04:40:21.718Z,7.90
2019-02-19T04:42:53.148Z,7.67
2019-02-19T04:45:24.577Z,7.80
2019-02-19T04:47:58.029Z,14.27
2019-02-19T04:50:29.189Z,9.13
2019-02-19T04:53:00.711Z,9.97
2019-02-19T04:55:32.170Z,9.93
2019-02-19T04:58:03.640Z,9.80
2019-02-19T05:00:35.195Z,12.90
2019-02-19T05:03:06.653Z,12.40
2019-02-19T05:05:39.691Z,10.77
2019-02-19T05:08:11.131Z,12.13
2019-02-19T05:10:42.594Z,9.77
2019-02-19T05:13:15.665Z,12.77
2019-02-19T05:15:47.031Z,9.57
2019-02-19T05:18:18.441Z,12.50
2019-02-19T05:20:51.533Z,11.83
2019-02-19T05:23:22.954Z,8.60
2019-02-19T05:25:54.411Z,10.80
2019-02-19T05:28:25.747Z,10.10
2019-02-19T05:30:57.315Z,9.50
2019-02-19T05:33:28.778Z,10.77
2019-02-19T05:36:00.309Z,8.33
2019-02-19T05:38:31.789Z,10.90
2019-02-19T05:41:03.480Z,11.73
2019-02-19T05:43:34.899Z,12.00
2019-02-19T05:46:06.352Z,9.53
2019-02-19T05:48:37.789Z,11.87
2019-02-19T05:51:09.151Z,17.67
2019-02-19T05:53:40.601Z,12.53
2019-02-19T05:56:12.080Z,11.87
2019-02-19T05:58:43.508Z,14.80
2019-02-19T06:01:14.989Z,11.20
2019-02-19T06:03:46.413Z,12.10
2019-02-19T06:06:17.868Z,13.13
2019-02-19T06:08:49.342Z,17.30
2019-02-19T06:11:23.011Z,9.37
2019-02-19T06:13:54.498Z,14.37
2019-02-19T06:16:26.005Z,10.70
2019-02-19T06:18:58.659Z,12.10
2019-02-19T06:21:30.101Z,12.87
2019-02-19T06:24:01.582Z,16.93
2019-02-19T06:26:33.021Z,15.70
2019-02-19T06:29:04.471Z,10.57
2019-02-19T06:31:35.853Z,13.00
2019-02-19T06:34:07.331Z,14.70
2019-02-19T06:36:38.818Z,14.70
2019-02-19T06:39:10.281Z,13.40
2019-02-19T06:41:46.315Z,15.50
2019-02-19T06:44:21.321Z,11.27
2019-02-19T06:46:54.110Z,13.87
2019-02-19T06:49:25.567Z,12.07
2019-02-19T06:51:57.438Z,10.27
2019-02-19T06:54:29.849Z,19.13
2019-02-19T06:57:03.113Z,15.30
2019-02-19T06:59:34.533Z,14.50
2019-02-19T07:02:42.963Z,12.20
2019-02-19T07:05:19.520Z,11.93
2019-02-19T07:07:50.963Z,11.87
2019-02-19T07:10:23.037Z,13.73
2019-02-19T07:12:57.396Z,15.80
2019-02-19T07:15:30.449Z,11.63
2019-02-19T07:18:01.877Z,13.00
2019-02-19T07:20:35.605Z,12.10
2019-02-19T07:23:08.297Z,13.23
2019-02-19T07:25:39.734Z,14.00
2019-02-19T07:28:11.233Z,11.87
2019-02-19T07:30:42.687Z,13.93
2019-02-19T07:33:14.104Z,12.60
2019-02-19T07:35:45.549Z,13.27
2019-02-19T07:38:17.047Z,12.93
2019-02-19T07:40:48.418Z,13.33
2019-02-19T07:43:19.889Z,10.70
2019-02-19T07:45:52.334Z,22.27
2019-02-19T07:48:26.446Z,13.50
2019-02-19T07:50:57.940Z,13.47
2019-02-19T07:53:29.417Z,14.57
2019-02-19T07:56:00.748Z,14.63
2019-02-19T07:58:32.328Z,13.13
2019-02-19T08:01:03.817Z,13.90
2019-02-19T08:03:35.368Z,13.43
2019-02-19T08:06:06.795Z,11.57
2019-02-19T08:08:38.281Z,12.23
2019-02-19T08:11:09.852Z,13.90
2019-02-19T08:13:41.234Z,12.20
2019-02-19T08:16:12.667Z,14.40
2019-02-19T08:18:45.243Z,17.17
2019-02-19T08:21:16.773Z,13.20
2019-02-19T08:23:48.249Z,16.40
2019-02-19T08:26:19.723Z,16.10
2019-02-19T08:28:51.332Z,19.50
2019-02-19T08:31:24.579Z,16.87
2019-02-19T08:33:57.654Z,16.17
2019-02-19T08:36:30.216Z,16.50
2019-02-19T08:39:01.591Z,13.00
2019-02-19T08:41:34.638Z,14.30
2019-02-19T08:44:06.132Z,12.43
2019-02-19T08:46:37.589Z,20.80
2019-02-19T08:49:09.046Z,14.80
2019-02-19T08:51:40.502Z,14.07
2019-02-19T08:54:13.580Z,11.93
2019-02-19T08:56:47.284Z,10.27
2019-02-19T08:59:19.256Z,15.13
2019-02-19T09:01:52.686Z,14.00
2019-02-19T09:04:24.140Z,15.60
2019-02-19T09:06:55.610Z,11.30
2019-02-19T09:09:27.307Z,10.30
2019-02-19T09:11:58.744Z,10.43
2019-02-19T09:14:30.208Z,8.30
2019-02-19T09:17:01.583Z,14.80
2019-02-19T09:19:33.123Z,22.67
2019-02-19T09:22:04.607Z,11.70
2019-02-19T09:24:36.093Z,13.57
2019-02-19T09:27:07.566Z,15.80
2019-02-19T09:29:39.008Z,13.27
2019-02-19T09:32:15.806Z,15.63
2019-02-19T09:34:48.826Z,9.93
2019-02-19T09:37:20.348Z,8.10
2019-02-19T09:39:55.864Z,12.23
2019-02-19T09:42:29.486Z,7.50
2019-02-19T09:45:07.663Z,10.20
2019-02-19T09:47:45.622Z,9.27
2019-02-19T09:50:17.069Z,16.93
2019-02-19T09:52:59.772Z,13.17
2019-02-19T09:55:40.131Z,9.37
2019-02-19T09:58:27.974Z,10.73
2019-02-19T10:01:00.713Z,12.30
2019-02-19T10:03:38.125Z,9.90
2019-02-19T10:06:13.522Z,14.77
2019-02-19T10:08:49.627Z,10.63
2019-02-19T10:11:26.267Z,7.50
2019-02-19T10:14:09.941Z,7.93
2019-02-19T10:16:42.164Z,15.70
2019-02-19T10:19:14.010Z,15.23
2019-02-19T10:21:45.823Z,12.50
2019-02-19T10:24:17.229Z,10.30
2019-02-19T10:26:49.690Z,11.83
2019-02-19T10:29:21.346Z,10.87
2019-02-19T10:31:52.930Z,14.20
2019-02-19T10:34:24.412Z,8.57
2019-02-19T10:36:55.848Z,5.37
2019-02-19T10:39:27.313Z,28.00
2019-02-19T10:41:58.813Z,6.33
2019-02-19T10:44:30.252Z,7.50
2019-02-19T10:47:05.453Z,10.07
2019-02-19T10:49:36.917Z,12.20
2019-02-19T10:52:08.475Z,9.80
2019-02-19T10:54:39.979Z,6.20
2019-02-19T10:57:11.451Z,10.70
2019-02-19T10:59:42.904Z,7.27
2019-02-19T11:02:16.399Z,6.63
2019-02-19T11:04:49.309Z,5.90
2019-02-19T11:07:20.777Z,10.30
2019-02-19T11:09:55.008Z,10.60
2019-02-19T11:12:26.477Z,8.13
2019-02-19T11:15:00.976Z,12.67
2019-02-19T11:17:32.584Z,7.07
2019-02-19T11:20:04.135Z,6.27
2019-02-19T11:22:35.685Z,10.17
2019-02-19T11:25:09.222Z,12.03
2019-02-19T11:27:40.736Z,10.13
2019-02-19T11:30:15.092Z,5.80
2019-02-19T11:32:46.676Z,11.97
2019-02-19T11:35:18.174Z,5.97
2019-02-19T11:37:49.631Z,9.73
2019-02-19T11:40:21.074Z,8.40
2019-02-19T11:42:52.528Z,14.60
2019-02-19T11:45:23.992Z,9.70
2019-02-19T11:47:55.503Z,5.53
2019-02-19T11:50:26.947Z,12.63
2019-02-19T11:52:58.527Z,11.73
2019-02-19T11:55:31.132Z,14.00
2019-02-19T11:58:02.547Z,7.13
2019-02-19T12:00:39.156Z,15.77
2019-02-19T12:03:10.665Z,7.77
2019-02-19T12:05:42.111Z,11.97
2019-02-19T12:08:15.725Z,9.43
2019-02-19T12:10:47.170Z,5.83
2019-02-19T12:13:18.655Z,8.00
2019-02-19T12:15:50.094Z,9.17
2019-02-19T12:18:21.557Z,13.10
2019-02-19T12:20:53.015Z,11.03
2019-02-19T12:23:24.453Z,6.57
2019-02-19T12:25:55.902Z,11.53
2019-02-19T12:28:27.400Z,5.37
2019-02-19T12:30:58.823Z,5.20
2019-02-19T12:33:30.389Z,8.60
2019-02-19T12:36:01.924Z,10.00
2019-02-19T12:38:33.358Z,4.30
2019-02-19T12:41:04.837Z,4.80
2019-02-19T12:43:36.306Z,4.67
2019-02-19T12:46:07.778Z,6.80
2019-02-19T12:48:44.260Z,9.07
2019-02-19T12:51:15.635Z,7.07
2019-02-19T12:53:49.926Z,5.10
2019-02-19T12:56:28.338Z,8.03
2019-02-19T12:59:11.358Z,5.43
2019-02-19T13:01:44.920Z,7.17
2019-02-19T13:04:20.978Z,11.80
2019-02-19T13:06:56.807Z,5.43
2019-02-19T13:09:33.807Z,3.97
2019-02-19T13:12:18.593Z,7.33
2019-02-19T13:14:52.314Z,7.03
2019-02-19T13:17:25.223Z,6.87
2019-02-19T13:19:58.221Z,6.00
2019-02-19T13:22:29.671Z,9.47
2019-02-19T13:25:01.111Z,8.20
2019-02-19T13:27:32.553Z,8.00
2019-02-19T13:30:04.051Z,5.87
2019-02-19T13:32:37.145Z,5.47
2019-02-19T13:35:09.575Z,6.83
2019-02-19T13:37:41.032Z,6.13
2019-02-19T13:40:13.389Z,5.00
2019-02-19T13:42:44.832Z,9.00
2019-02-19T13:45:16.302Z,8.73
2019-02-19T13:47:47.844Z,4.00
2019-02-19T13:50:21.111Z,8.17
2019-02-19T13:53:02.631Z,11.13
2019-02-19T13:55:38.222Z,16.33
2019-02-19T13:58:09.653Z,4.73
2019-02-19T14:00:42.937Z,4.13
2019-02-19T14:03:14.434Z,11.60
2019-02-19T14:05:45.909Z,9.30
2019-02-19T14:08:17.366Z,9.17
2019-02-19T14:10:48.825Z,8.30
2019-02-19T14:13:20.471Z,5.83
2019-02-19T14:15:58.912Z,13.63
2019-02-19T14:18:48.081Z,9.13
2019-02-19T14:21:38.410Z,5.30
2019-02-19T14:24:27.328Z,7.07
2019-02-19T14:27:08.110Z,8.73
2019-02-19T14:30:07.585Z,22.90
2019-02-19T14:32:56.947Z,12.10
2019-02-19T14:35:56.415Z,6.03
2019-02-19T14:38:53.738Z,10.00
2019-02-19T14:41:46.888Z,11.23
2019-02-19T14:44:36.226Z,5.27
2019-02-19T14:47:25.472Z,14.10
2019-02-19T14:50:12.856Z,6.70
2019-02-19T14:52:56.314Z,9.20
2019-02-19T14:55:45.507Z,4.63
2019-02-19T14:58:38.842Z,13.10
2019-02-19T15:01:35.550Z,8.50
2019-02-19T15:04:25.893Z,15.10
2019-02-19T15:07:09.576Z,9.03
2019-02-19T15:10:02.722Z,11.47
2019-02-19T15:12:53.535Z,6.33
2019-02-19T15:15:46.631Z,10.90
2019-02-19T15:18:46.065Z,6.33
2019-02-19T15:21:32.386Z,11.13
2019-02-19T15:24:29.125Z,9.00
2019-02-19T15:27:06.654Z,11.23
2019-02-19T15:29:54.352Z,4.90
2019-02-19T15:32:50.468Z,5.93
2019-02-19T15:35:39.585Z,11.77
2019-02-19T15:38:29.936Z,19.50
2019-02-19T15:41:23.172Z,8.93
2019-02-19T15:44:06.045Z,12.50
2019-02-19T15:46:56.313Z,17.70
2019-02-19T15:49:47.900Z,16.23
2019-02-19T15:52:41.029Z,19.10
2019-02-19T15:55:30.386Z,9.57
2019-02-19T15:58:22.101Z,8.27
2019-02-19T16:01:11.471Z,7.77
2019-02-19T16:03:52.220Z,6.00
2019-02-19T16:06:29.108Z,14.90
2019-02-19T16:09:18.131Z,14.43
2019-02-19T16:12:14.508Z,8.90
2019-02-19T16:15:03.527Z,9.73
2019-02-19T16:17:53.934Z,15.93
2019-02-19T16:20:47.278Z,16.13
2019-02-19T16:23:43.911Z,18.00
2019-02-19T16:26:37.307Z,9.07
2019-02-19T16:29:34.824Z,12.00
2019-02-19T16:32:35.797Z,13.13
2019-02-19T16:38:51.648Z,13.27
2019-02-19T16:41:56.628Z,9.07
2019-02-19T16:45:06.690Z,15.53
2019-02-19T16:48:06.790Z,11.30
2019-02-19T16:50:56.566Z,13.93
2019-02-19T16:53:57.388Z,21.87
2019-02-19T16:57:08.111Z,13.23
2019-02-19T17:00:07.459Z,11.10
2019-02-19T17:03:05.762Z,9.90
2019-02-19T17:06:03.930Z,24.53
2019-02-19T17:08:45.600Z,12.50
2019-02-19T17:11:29.764Z,16.77
2019-02-19T17:14:33.253Z,15.37
2019-02-19T17:17:39.357Z,14.33
2019-02-19T17:20:39.697Z,14.10
2019-02-19T17:23:46.352Z,23.53
2019-02-19T17:26:31.670Z,16.80
2019-02-19T17:29:28.228Z,13.43
2019-02-19T17:32:17.177Z,12.97
2019-02-19T17:35:01.846Z,9.90
2019-02-19T17:38:00.874Z,7.77
2019-02-19T17:41:03.442Z,14.77
2019-02-19T17:43:49.100Z,13.40
2019-02-19T17:46:35.505Z,19.63
2019-02-19T17:49:27.757Z,13.83
2019-02-19T17:52:08.448Z,21.87
2019-02-19T17:54:47.228Z,16.90
2019-02-19T17:57:36.654Z,41.87
2019-02-19T18:00:30.167Z,17.10
2019-02-19T18:03:24.553Z,13.57
2019-02-19T18:06:22.922Z,15.13
2019-02-19T18:09:15.770Z,24.03
2019-02-19T18:12:19.069Z,19.70
2019-02-19T18:15:05.187Z,19.30
2019-02-19T18:17:57.977Z,28.33
2019-02-19T18:20:32.967Z,17.90
2019-02-19T18:23:06.666Z,18.20
2019-02-19T18:25:40.009Z,20.40
2019-02-19T18:28:12.857Z,17.50
2019-02-19T18:30:46.355Z,24.40
2019-02-19T18:33:23.205Z,18.93
2019-02-19T18:36:00.016Z,15.30
2019-02-19T18:38:41.350Z,10.07
2019-02-19T18:41:19.467Z,15.40
2019-02-19T18:43:53.998Z,15.50
2019-02-19T18:46:28.962Z,15.00
2019-02-19T18:49:00.395Z,13.03
2019-02-19T18:51:31.829Z,14.93
2019-02-19T18:54:03.301Z,17.63
2019-02-19T18:56:34.818Z,19.87
2019-02-19T18:59:07.540Z,17.13
2019-02-19T19:01:40.608Z,15.50
2019-02-19T19:04:12.079Z,19.60
2019-02-19T19:06:43.507Z,16.73
2019-02-19T19:09:14.959Z,14.23
2019-02-19T19:11:46.382Z,22.60
2019-02-19T19:14:17.831Z,35.37
2019-02-19T19:16:49.259Z,19.40
2019-02-19T19:19:20.732Z,25.33
2019-02-19T19:21:52.242Z,18.40
2019-02-19T19:24:23.712Z,20.40
2019-02-19T19:26:55.146Z,19.13
2019-02-19T19:29:26.581Z,17.50
2019-02-19T19:31:58.019Z,27.93
2019-02-19T19:34:29.491Z,33.33
2019-02-19T19:37:00.919Z,25.43
2019-02-19T19:39:34.864Z,33.37
2019-02-19T19:42:06.328Z,27.93
2019-02-19T19:44:37.794Z,22.20
2019-02-19T19:47:09.257Z,21.90
2019-02-19T19:49:40.721Z,20.00
2019-02-19T19:52:12.155Z,22.03
2019-02-19T19:54:43.631Z,22.70
2019-02-19T19:57:15.075Z,22.70
2019-02-19T19:59:46.651Z,26.00
2019-02-19T20:02:20.909Z,21.83
2019-02-19T20:05:02.977Z,23.60
2019-02-19T20:07:36.584Z,24.33
2019-02-19T20:10:10.068Z,30.53
2019-02-19T20:12:41.544Z,26.20
2019-02-19T20:15:13.581Z,21.27
2019-02-19T20:17:45.140Z,35.37
2019-02-19T20:20:16.607Z,22.73
2019-02-19T20:22:48.028Z,25.37
2019-02-19T20:25:19.498Z,28.47
2019-02-19T20:27:51.004Z,26.67
2019-02-19T20:30:22.485Z,31.93
2019-02-19T20:32:54.017Z,26.10
2019-02-19T20:35:25.548Z,30.80
2019-02-19T20:37:57.035Z,29.10
2019-02-19T20:40:28.465Z,26.67
2019-02-19T20:42:59.957Z,32.30
2019-02-19T20:45:33.287Z,39.17
2019-02-19T20:48:04.758Z,31.53
2019-02-19T20:50:36.307Z,29.83
2019-02-19T20:53:07.783Z,30.40
2019-02-19T20:55:39.740Z,30.23
2019-02-19T20:58:11.336Z,29.90
2019-02-19T21:00:46.783Z,32.83
2019-02-19T21:03:19.929Z,46.93
2019-02-19T21:05:54.529Z,40.83
2019-02-19T21:08:30.377Z,29.00
2019-02-19T21:11:01.894Z,33.07
2019-02-19T21:13:33.411Z,29.47
2019-02-19T21:16:04.926Z,41.10
2019-02-19T21:18:36.522Z,37.87
2019-02-19T21:21:08.047Z,42.03
2019-02-19T21:23:41.509Z,38.43
2019-02-19T21:26:18.173Z,42.10
2019-02-19T21:28:55.831Z,33.80
2019-02-19T21:31:26.670Z,37.73
2019-02-19T21:34:01.016Z,38.07
2019-02-19T21:36:37.425Z,40.60
2019-02-19T21:39:12.827Z,38.63
2019-02-19T21:41:51.826Z,35.33
2019-02-19T21:44:25.501Z,37.50
2019-02-19T21:47:00.881Z,36.93
2019-02-19T21:49:35.561Z,36.03
2019-02-19T21:52:07.485Z,38.70
2019-02-19T21:54:39.003Z,31.73
2019-02-19T21:57:10.422Z,30.17
2019-02-19T21:59:41.881Z,29.67
2019-02-19T22:02:16.434Z,33.00
2019-02-19T22:04:47.579Z,37.30
2019-02-19T22:07:19.053Z,36.93
2019-02-19T22:09:55.535Z,35.90
2019-02-19T22:12:26.067Z,35.53
2019-02-19T22:14:57.489Z,37.33
2019-02-19T22:17:29.977Z,39.80
2019-02-19T22:20:03.732Z,41.17
2019-02-19T22:22:36.755Z,34.07
2019-02-19T22:25:08.267Z,41.50
2019-02-19T22:27:39.686Z,42.70
2019-02-19T22:30:11.649Z,38.70
2019-02-19T22:32:43.045Z,37.47
2019-02-19T22:35:14.477Z,42.50
2019-02-19T22:37:45.901Z,34.90
2019-02-19T22:40:17.338Z,38.17
2019-02-19T22:42:48.819Z,38.10
2019-02-19T22:45:24.454Z,41.53
2019-02-19T22:47:55.881Z,36.23
2019-02-19T22:50:27.306Z,53.77
2019-02-19T22:52:58.709Z,36.80
2019-02-19T22:55:54.925Z,37.03
2019-02-19T22:58:26.255Z,39.80
2019-02-19T23:01:23.183Z,34.00
2019-02-19T23:03:57.765Z,36.03
2019-02-19T23:06:29.211Z,38.27
2019-02-19T23:09:00.579Z,38.67
2019-02-19T23:11:33.635Z,35.60
2019-02-19T23:14:04.995Z,32.40
2019-02-19T23:16:36.609Z,49.70
2019-02-19T23:19:08.078Z,37.97
2019-02-19T23:21:39.500Z,39.23
2019-02-19T23:24:10.989Z,36.73
2019-02-19T23:26:42.341Z,39.73
2019-02-19T23:29:13.808Z,34.43
2019-02-19T23:31:45.310Z,33.27
2019-02-19T23:34:16.659Z,42.50
2019-02-19T23:36:54.105Z,40.47
2019-02-19T23:39:25.427Z,35.93
2019-02-19T23:41:58.620Z,45.93
2019-02-19T23:44:29.966Z,33.70
2019-02-19T23:47:03.875Z,41.87
2019-02-19T23:49:38.387Z,37.03
2019-02-19T23:52:09.835Z,35.10
2019-02-19T23:54:41.251Z,38.90
2019-02-19T23:57:12.629Z,29.53
2019-02-19T23:59:43.964Z,33.90
